Time;durP1;ratioP1;P1;durP2;ratioP2;P2;SDS_P1;SDS_P2;PMS_P1;PMS_P2;Temp;Humidity;BMP_temperature;BMP_pressure;BME280_temperature;BME280_humidity;BME280_pressure;Samples;Min_cycle;Max_cycle;Signal;HPM_P1;HPM_P2
2022/02/27 00:01:42;;;;;;;0.20;0.10;;;;;;;2.37;100.00;101877.44;4992357;28;20454;-48
2022/02/27 00:04:09;;;;;;;0.20;0.10;;;;;;;2.35;100.00;101881.75;4984288;28;20549;-48
2022/02/27 00:06:53;;;;;;;0.30;0.20;;;;;;;2.46;100.00;101881.16;4993252;28;20437;-49
2022/02/27 00:09:37;;;;;;;1.80;0.83;;;;;;;2.53;100.00;101880.50;4988671;28;20525;-48
2022/02/27 00:12:04;;;;;;;0.30;0.20;;;;;;;2.37;100.00;101879.16;4993152;28;20481;-48
2022/02/27 00:14:31;;;;;;;0.20;0.20;;;;;;;2.31;100.00;101873.72;4991447;28;20873;-48
2022/02/27 00:16:57;;;;;;;0.20;0.20;;;;;;;2.34;100.00;101879.97;4992519;28;21010;-48
2022/02/27 00:19:24;;;;;;;0.30;0.20;;;;;;;2.31;100.00;101877.22;4992840;28;20561;-49
2022/02/27 00:21:51;;;;;;;0.20;0.10;;;;;;;2.30;100.00;101878.06;4993198;28;20504;-50
2022/02/27 00:24:18;;;;;;;0.20;0.10;;;;;;;2.30;100.00;101880.69;4993071;28;20456;-50
2022/02/27 00:26:47;;;;;;;0.30;0.30;;;;;;;2.37;100.00;101881.78;4992771;28;20457;-50
2022/02/27 00:29:14;;;;;;;0.20;0.10;;;;;;;2.43;100.00;101884.59;4992697;28;20450;-50
2022/02/27 00:31:41;;;;;;;0.20;0.10;;;;;;;2.32;100.00;101879.00;4992706;28;20983;-50
2022/02/27 00:34:08;;;;;;;0.30;0.30;;;;;;;2.37;100.00;101871.31;4992910;28;20453;-50
2022/02/27 00:36:35;;;;;;;0.20;0.10;;;;;;;2.26;100.00;101870.97;4992428;28;20496;-50
2022/02/27 00:39:02;;;;;;;0.20;0.10;;;;;;;2.37;100.00;101871.31;4992852;28;20474;-50
2022/02/27 00:41:29;;;;;;;0.20;0.10;;;;;;;2.27;100.00;101871.84;4992463;28;20512;-50
2022/02/27 00:43:55;;;;;;;0.20;0.10;;;;;;;2.17;100.00;101864.53;4992746;28;20453;-50
2022/02/27 00:46:22;;;;;;;0.20;0.10;;;;;;;2.28;100.00;101864.03;4992326;28;20483;-50
2022/02/27 00:48:49;;;;;;;0.20;0.10;;;;;;;2.28;100.00;101864.03;4992507;28;20580;-50
2022/02/27 00:51:15;;;;;;;0.20;0.10;;;;;;;1.94;100.00;101862.09;4992614;28;20462;-50
2022/02/27 00:53:42;;;;;;;0.73;0.70;;;;;;;2.15;100.00;101859.25;4992741;28;20897;-50
2022/02/27 00:56:10;;;;;;;0.20;0.10;;;;;;;2.17;100.00;101862.81;4986321;28;20507;-50
2022/02/27 00:58:36;;;;;;;0.40;0.40;;;;;;;2.17;100.00;101859.28;5001346;28;20473;-50
2022/02/27 01:01:03;;;;;;;0.30;0.20;;;;;;;1.94;100.00;101861.22;4992819;28;20461;-50
2022/02/27 01:03:30;;;;;;;0.30;0.20;;;;;;;2.07;100.00;101856.41;4992469;28;20453;-50
2022/02/27 01:05:56;;;;;;;1.60;1.23;;;;;;;2.03;100.00;101869.34;4988847;28;20789;-50
2022/02/27 01:08:25;;;;;;;0.20;0.20;;;;;;;2.08;100.00;101860.81;4992111;28;21011;-51
2022/02/27 01:11:10;;;;;;;0.53;0.43;;;;;;;2.03;100.00;101858.88;4979760;28;20424;-50
2022/02/27 01:14:02;;;;;;;0.30;0.10;;;;;;;1.96;100.00;101857.78;4994942;28;20535;-50
2022/02/27 01:16:30;;;;;;;0.20;0.10;;;;;;;2.03;100.00;101856.25;4988766;28;20557;-50
2022/02/27 01:18:57;;;;;;;0.90;0.90;;;;;;;2.07;100.00;101858.13;4993512;28;20999;-51
2022/02/27 01:21:23;;;;;;;0.23;0.17;;;;;;;2.20;100.00;101852.44;4996463;28;20826;-51
2022/02/27 01:23:50;;;;;;;0.20;0.10;;;;;;;2.13;100.00;101853.06;4996116;28;20934;-50
2022/02/27 01:26:17;;;;;;;0.30;0.30;;;;;;;1.95;100.00;101853.41;4996369;28;20500;-51
2022/02/27 01:28:43;;;;;;;0.20;0.10;;;;;;;1.94;100.00;101846.38;4996066;28;20492;-50
2022/02/27 01:31:10;;;;;;;0.20;0.10;;;;;;;1.80;100.00;101849.41;4995943;28;20449;-50
2022/02/27 01:33:37;;;;;;;0.30;0.20;;;;;;;1.86;100.00;101845.22;4995007;28;20954;-50
2022/02/27 01:36:06;;;;;;;0.20;0.10;;;;;;;1.82;100.00;101840.75;4986860;28;20512;-50
2022/02/27 01:38:35;;;;;;;0.20;0.10;;;;;;;1.88;100.00;101845.28;4996104;28;20523;-50
2022/02/27 01:41:03;;;;;;;0.20;0.13;;;;;;;1.86;100.00;101847.84;4996000;28;20476;-50
2022/02/27 01:43:29;;;;;;;0.60;0.60;;;;;;;1.85;100.00;101838.19;4995872;28;20481;-50
2022/02/27 01:45:56;;;;;;;0.20;0.10;;;;;;;1.74;100.00;101840.47;4995997;28;20484;-51
2022/02/27 01:48:23;;;;;;;0.20;0.20;;;;;;;1.69;100.00;101847.31;4995492;28;20497;-50
2022/02/27 01:50:50;;;;;;;0.27;0.13;;;;;;;1.54;100.00;101838.94;4995672;28;20512;-50
2022/02/27 01:53:17;;;;;;;1.50;1.40;;;;;;;1.35;100.00;101839.16;4995624;28;20450;-50
2022/02/27 01:55:45;;;;;;;0.20;0.10;;;;;;;1.41;100.00;101837.66;4995711;28;20520;-50
2022/02/27 01:58:12;;;;;;;0.50;0.50;;;;;;;1.32;100.00;101836.44;4982875;28;20474;-50
2022/02/27 02:00:41;;;;;;;0.20;0.10;;;;;;;1.26;100.00;101834.53;4993727;28;20457;-51
2022/02/27 02:03:07;;;;;;;0.20;0.10;;;;;;;1.25;100.00;101835.38;4996010;28;20457;-50
2022/02/27 02:05:34;;;;;;;0.20;0.10;;;;;;;1.27;100.00;101832.78;4995427;28;20491;-50
2022/02/27 02:08:01;;;;;;;0.20;0.10;;;;;;;1.11;100.00;101832.28;4995343;28;20516;-50
2022/02/27 02:10:27;;;;;;;0.33;0.30;;;;;;;0.96;100.00;101830.81;4986287;28;20509;-50
2022/02/27 02:12:55;;;;;;;0.20;0.10;;;;;;;1.07;100.00;101821.63;4995554;28;20484;-50
2022/02/27 02:15:21;;;;;;;0.43;0.43;;;;;;;1.05;100.00;101821.56;4995144;28;20453;-49
2022/02/27 02:17:48;;;;;;;0.30;0.20;;;;;;;0.92;100.00;101821.09;4995476;28;20549;-50
2022/02/27 02:20:18;;;;;;;0.20;0.10;;;;;;;1.17;100.00;101808.00;4995040;28;20472;-50
2022/02/27 02:22:47;;;;;;;0.20;0.10;;;;;;;1.08;100.00;101812.91;4995512;28;20545;-50
2022/02/27 02:25:14;;;;;;;0.20;0.20;;;;;;;1.02;100.00;101810.09;4994095;28;20504;-50
2022/02/27 02:27:41;;;;;;;0.20;0.10;;;;;;;1.05;100.00;101804.97;4995044;28;20513;-49
2022/02/27 02:30:09;;;;;;;0.20;0.10;;;;;;;0.86;100.00;101808.69;4986464;28;21033;-50
2022/02/27 02:32:50;;;;;;;0.20;0.10;;;;;;;0.75;100.00;101810.91;4994448;28;20453;-50
2022/02/27 02:35:18;;;;;;;0.20;0.10;;;;;;;0.59;100.00;101799.00;4993621;28;20484;-50
2022/02/27 02:37:45;;;;;;;0.20;0.10;;;;;;;0.56;100.00;101801.53;4993279;28;20539;-50
2022/02/27 02:40:12;;;;;;;2.33;1.43;;;;;;;0.65;100.00;101806.19;4993982;28;20453;-50
2022/02/27 02:42:43;;;;;;;0.20;0.10;;;;;;;0.79;100.00;101801.44;4994634;28;20462;-50
2022/02/27 02:45:11;;;;;;;0.20;0.10;;;;;;;0.95;100.00;101795.91;5009869;28;20462;-50
2022/02/27 02:47:43;;;;;;;1.07;1.07;;;;;;;0.79;100.00;101801.44;4994155;28;20548;-50
2022/02/27 02:50:11;;;;;;;0.50;0.50;;;;;;;0.97;100.00;101801.22;4992890;28;20456;-50
2022/02/27 02:52:38;;;;;;;0.20;0.10;;;;;;;1.33;100.00;101796.31;4994276;28;20898;-50
2022/02/27 02:55:13;;;;;;;0.20;0.10;;;;;;;1.56;100.00;101797.97;4994443;28;20457;-50
2022/02/27 02:57:40;;;;;;;0.20;0.10;;;;;;;1.65;100.00;101794.75;5007094;28;20492;-50
2022/02/27 03:00:10;;;;;;;0.20;0.10;;;;;;;1.69;100.00;101794.91;4994380;28;20573;-50
2022/02/27 03:02:37;;;;;;;0.20;0.10;;;;;;;1.76;100.00;101794.22;4993957;28;20454;-50
2022/02/27 03:05:05;;;;;;;0.20;0.10;;;;;;;1.60;100.00;101793.72;4994200;28;20821;-50
2022/02/27 03:07:33;;;;;;;0.20;0.10;;;;;;;1.62;100.00;101799.88;4993928;28;20465;-49
2022/02/27 03:10:04;;;;;;;0.20;0.20;;;;;;;1.70;100.00;101791.44;4985968;28;20493;-50
2022/02/27 03:12:31;;;;;;;0.20;0.10;;;;;;;1.73;100.00;101799.38;4994084;28;20454;-49
2022/02/27 03:14:57;;;;;;;0.20;0.20;;;;;;;1.81;100.00;101797.03;4993904;28;20449;-50
2022/02/27 03:17:24;;;;;;;0.20;0.10;;;;;;;1.82;100.00;101783.06;4993775;28;20535;-50
2022/02/27 03:19:50;;;;;;;0.20;0.10;;;;;;;1.91;100.00;101787.69;4993638;28;20516;-50
2022/02/27 03:22:17;;;;;;;0.20;0.10;;;;;;;1.76;100.00;101789.00;4993895;28;20975;-50
2022/02/27 03:24:44;;;;;;;0.20;0.13;;;;;;;1.92;100.00;101793.00;4993433;28;20543;-51
2022/02/27 03:27:10;;;;;;;0.20;0.10;;;;;;;1.83;100.00;101784.84;4993705;28;20990;-51
2022/02/27 03:29:37;;;;;;;0.20;0.10;;;;;;;2.00;100.00;101790.59;4993512;28;20954;-50
2022/02/27 03:32:04;;;;;;;0.20;0.10;;;;;;;2.01;100.00;101793.25;4993737;28;20453;-50
2022/02/27 03:34:31;;;;;;;0.30;0.30;;;;;;;2.07;100.00;101788.22;4993499;28;20545;-50
2022/02/27 03:36:58;;;;;;;0.20;0.10;;;;;;;2.11;100.00;101799.69;4992302;28;20539;-50
2022/02/27 03:39:25;;;;;;;0.20;0.20;;;;;;;2.11;100.00;101799.69;4992382;28;20943;-50
2022/02/27 03:41:51;;;;;;;0.20;0.10;;;;;;;2.19;100.00;101790.28;4984912;28;20481;-51
2022/02/27 03:44:18;;;;;;;4.03;1.50;;;;;;;1.99;100.00;101786.19;4993313;28;20500;-51
2022/02/27 03:46:45;;;;;;;0.20;0.10;;;;;;;2.01;100.00;101789.75;4980972;28;20544;-51
2022/02/27 03:49:13;;;;;;;0.20;0.10;;;;;;;1.93;100.00;101792.16;4992717;28;20515;-50
2022/02/27 03:51:40;;;;;;;0.20;0.10;;;;;;;1.99;100.00;101787.09;4993297;28;20457;-50
2022/02/27 03:54:06;;;;;;;0.20;0.10;;;;;;;1.94;100.00;101788.69;4993540;28;20504;-51
2022/02/27 03:56:33;;;;;;;0.20;0.10;;;;;;;2.07;100.00;101790.84;4999174;28;20484;-50
2022/02/27 03:58:59;;;;;;;0.20;0.10;;;;;;;2.02;100.00;101791.53;4993150;28;20478;-51
2022/02/27 04:01:26;;;;;;;0.30;0.20;;;;;;;1.95;100.00;101787.84;4993071;28;20489;-50
2022/02/27 04:03:53;;;;;;;0.20;0.10;;;;;;;1.88;100.00;101785.88;4993139;28;20473;-50
2022/02/27 04:06:19;;;;;;;0.20;0.10;;;;;;;1.75;100.00;101781.09;4980658;28;20527;-50
2022/02/27 04:08:46;;;;;;;0.20;0.10;;;;;;;1.90;100.00;101789.41;4992097;28;20482;-50
2022/02/27 04:11:13;;;;;;;0.20;0.20;;;;;;;1.83;100.00;101791.81;4992822;28;20505;-50
2022/02/27 04:13:39;;;;;;;0.20;0.10;;;;;;;1.85;100.00;101791.03;4993020;28;20477;-50
2022/02/27 04:16:06;;;;;;;0.20;0.10;;;;;;;1.76;100.00;101793.34;4992904;28;20497;-50
2022/02/27 04:18:33;;;;;;;0.20;0.10;;;;;;;1.84;100.00;101791.88;4992152;28;20493;-50
2022/02/27 04:20:59;;;;;;;0.67;0.67;;;;;;;1.86;100.00;101794.53;4992770;28;21017;-49
2022/02/27 04:23:26;;;;;;;0.20;0.10;;;;;;;1.87;100.00;101788.44;4992835;28;20516;-50
2022/02/27 04:25:52;;;;;;;0.20;0.10;;;;;;;1.92;100.00;101797.31;4992354;28;20453;-49
2022/02/27 04:28:19;;;;;;;0.20;0.10;;;;;;;1.86;100.00;101798.03;4992316;28;20561;-49
2022/02/27 04:30:46;;;;;;;0.20;0.10;;;;;;;1.81;100.00;101793.50;4992683;28;20838;-50
2022/02/27 04:33:13;;;;;;;0.20;0.10;;;;;;;1.89;100.00;101790.25;4993031;28;20545;-50
2022/02/27 04:35:39;;;;;;;0.20;0.10;;;;;;;1.75;100.00;101794.19;4992678;28;20453;-49
2022/02/27 04:38:06;;;;;;;0.20;0.10;;;;;;;1.30;100.00;101790.97;4992693;28;20548;-49
2022/02/27 04:40:33;;;;;;;0.20;0.10;;;;;;;1.33;100.00;101784.09;4992768;28;20453;-49
2022/02/27 04:43:01;;;;;;;0.20;0.10;;;;;;;1.29;100.00;101787.47;4992485;28;20827;-49
2022/02/27 04:45:30;;;;;;;0.20;0.10;;;;;;;1.26;100.00;101776.91;4992607;28;20457;-49
2022/02/27 04:47:57;;;;;;;0.20;0.10;;;;;;;1.21;100.00;101785.44;4991795;28;20531;-50
2022/02/27 04:50:24;;;;;;;0.20;0.20;;;;;;;1.35;100.00;101789.38;4982348;28;20457;-50
2022/02/27 04:52:50;;;;;;;0.20;0.10;;;;;;;1.42;100.00;101788.78;4992695;28;20516;-50
2022/02/27 04:55:17;;;;;;;0.20;0.10;;;;;;;1.17;100.00;101785.34;4991491;28;20496;-49
2022/02/27 04:57:43;;;;;;;0.30;0.10;;;;;;;1.22;100.00;101790.72;4995401;28;20976;-50
2022/02/27 05:00:11;;;;;;;0.20;0.10;;;;;;;1.14;100.00;101787.84;4992605;28;20871;-50
2022/02/27 05:02:38;;;;;;;0.20;0.10;;;;;;;1.18;100.00;101788.84;4992283;28;20520;-50
2022/02/27 05:05:05;;;;;;;0.20;0.10;;;;;;;1.15;100.00;101786.13;4991342;28;20958;-50
2022/02/27 05:07:32;;;;;;;0.20;0.10;;;;;;;1.20;100.00;101802.88;4992060;28;20473;-50
2022/02/27 05:10:00;;;;;;;0.20;0.10;;;;;;;1.22;100.00;101792.44;4984765;28;20457;-50
2022/02/27 05:12:27;;;;;;;1.03;0.97;;;;;;;1.19;100.00;101788.00;4991827;28;20449;-49
2022/02/27 05:14:54;;;;;;;0.20;0.10;;;;;;;1.05;100.00;101794.50;4992380;28;20797;-50
2022/02/27 05:17:35;;;;;;;0.20;0.10;;;;;;;0.98;100.00;101789.91;4992096;28;20492;-49
2022/02/27 05:20:06;;;;;;;0.20;0.10;;;;;;;1.05;100.00;101789.25;4992582;28;20512;-51
2022/02/27 05:22:33;;;;;;;0.30;0.20;;;;;;;0.98;100.00;101787.28;4981204;28;20897;-51
2022/02/27 05:24:59;;;;;;;0.30;0.20;;;;;;;1.03;100.00;101790.94;4992197;28;20453;-49
2022/02/27 05:27:26;;;;;;;0.20;0.10;;;;;;;0.90;100.00;101789.63;4992517;28;20470;-51
2022/02/27 05:29:52;;;;;;;0.20;0.10;;;;;;;0.86;100.00;101787.75;4992261;28;20457;-49
2022/02/27 05:32:19;;;;;;;0.20;0.10;;;;;;;0.78;100.00;101795.31;4992272;28;20462;-50
2022/02/27 05:34:46;;;;;;;0.20;0.10;;;;;;;0.79;100.00;101791.84;4992174;28;20997;-50
2022/02/27 05:37:17;;;;;;;1.03;1.03;;;;;;;0.88;100.00;101804.41;4992306;28;20493;-50
2022/02/27 05:39:46;;;;;;;0.20;0.10;;;;;;;0.90;100.00;101797.47;4992073;28;20496;-50
2022/02/27 05:42:14;;;;;;;0.30;0.30;;;;;;;0.82;100.00;101802.47;4992275;28;20449;-50
2022/02/27 05:44:40;;;;;;;0.20;0.10;;;;;;;0.84;100.00;101803.41;4992354;28;20512;-50
2022/02/27 05:47:07;;;;;;;0.20;0.10;;;;;;;0.82;100.00;101799.84;4992397;28;20461;-50
2022/02/27 05:49:34;;;;;;;0.20;0.10;;;;;;;0.85;100.00;101801.69;4992366;28;20994;-50
2022/02/27 05:52:00;;;;;;;0.20;0.10;;;;;;;0.81;100.00;101802.38;4992031;28;20860;-51
2022/02/27 05:54:27;;;;;;;0.20;0.10;;;;;;;0.91;100.00;101798.38;4992236;28;20492;-50
2022/02/27 05:56:54;;;;;;;0.20;0.10;;;;;;;0.89;100.00;101795.69;4991992;28;20523;-50
2022/02/27 05:59:20;;;;;;;0.20;0.10;;;;;;;0.99;100.00;101800.44;4992030;28;20457;-51
2022/02/27 06:01:48;;;;;;;0.20;0.10;;;;;;;0.97;100.00;101804.72;4995373;28;20457;-51
2022/02/27 06:04:16;;;;;;;0.20;0.10;;;;;;;0.95;100.00;101806.38;4995454;28;20548;-50
2022/02/27 06:06:43;;;;;;;0.40;0.40;;;;;;;1.05;100.00;101808.47;4995160;28;20458;-50
2022/02/27 06:09:10;;;;;;;0.20;0.10;;;;;;;1.05;100.00;101808.47;4993150;28;20461;-51
2022/02/27 06:11:37;;;;;;;0.20;0.10;;;;;;;0.97;100.00;101820.44;4995713;28;20508;-51
2022/02/27 06:14:04;;;;;;;2.00;1.03;;;;;;;0.97;100.00;101809.06;4995639;28;20771;-51
2022/02/27 06:16:30;;;;;;;0.20;0.10;;;;;;;0.96;100.00;101817.72;4995325;28;20461;-51
2022/02/27 06:18:58;;;;;;;0.20;0.10;;;;;;;0.88;100.00;101823.59;4994481;28;20906;-52
2022/02/27 06:21:25;;;;;;;0.20;0.10;;;;;;;0.90;100.00;101815.81;4995494;28;20450;-52
2022/02/27 06:23:52;;;;;;;0.20;0.10;;;;;;;0.89;100.00;101824.50;4994778;28;20449;-52
2022/02/27 06:26:19;;;;;;;0.20;0.10;;;;;;;0.89;100.00;101833.22;4996171;28;20442;-52
2022/02/27 06:28:45;;;;;;;0.20;0.10;;;;;;;0.93;100.00;101833.34;4995401;28;20470;-52
2022/02/27 06:31:13;;;;;;;0.20;0.10;;;;;;;0.91;100.00;101842.88;4995097;28;20462;-52
2022/02/27 06:33:40;;;;;;;0.20;0.10;;;;;;;0.95;100.00;101845.63;4994778;28;20461;-52
2022/02/27 06:36:06;;;;;;;0.20;0.10;;;;;;;0.99;100.00;101851.88;4994711;28;20458;-52
2022/02/27 06:38:36;;;;;;;0.20;0.10;;;;;;;0.97;100.00;101853.56;4993600;28;20543;-52
2022/02/27 06:41:04;;;;;;;0.20;0.10;;;;;;;1.00;100.00;101849.31;4994879;28;20512;-52
2022/02/27 06:43:33;;;;;;;0.20;0.10;;;;;;;1.05;100.00;101860.84;4994623;28;20457;-52
2022/02/27 06:46:01;;;;;;;1.07;1.07;;;;;;;1.15;100.00;101859.44;4994484;28;20524;-52
2022/02/27 06:48:28;;;;;;;0.20;0.10;;;;;;;1.10;100.00;101855.78;4993761;28;21056;-52
2022/02/27 06:50:54;;;;;;;0.20;0.10;;;;;;;1.20;100.00;101865.72;4994402;28;20497;-52
2022/02/27 06:53:21;;;;;;;15.23;1.70;;;;;;;1.25;100.00;101850.19;4994723;28;20458;-51
2022/02/27 06:55:49;;;;;;;0.20;0.10;;;;;;;1.25;100.00;101866.78;4994870;28;20500;-52
2022/02/27 06:58:17;;;;;;;0.20;0.13;;;;;;;1.26;100.00;101865.94;5006955;28;20532;-52
2022/02/27 07:00:44;;;;;;;0.20;0.10;;;;;;;1.31;100.00;101866.97;4994369;28;20482;-53
2022/02/27 07:03:10;;;;;;;0.20;0.10;;;;;;;1.29;100.00;101878.25;4994151;28;20507;-52
2022/02/27 07:05:37;;;;;;;0.20;0.10;;;;;;;1.38;100.00;101874.22;4994000;28;20522;-52
2022/02/27 07:08:05;;;;;;;0.20;0.10;;;;;;;1.41;100.00;101868.19;4994252;28;20469;-52
2022/02/27 07:10:32;;;;;;;0.20;0.10;;;;;;;1.43;100.00;101883.13;4993610;28;20453;-53
2022/02/27 07:12:59;;;;;;;0.20;0.10;;;;;;;1.45;100.00;101878.81;4986390;28;20481;-53
2022/02/27 07:15:26;;;;;;;0.20;0.10;;;;;;;1.53;100.00;101883.44;4993860;28;21002;-52
2022/02/27 07:17:52;;;;;;;0.20;0.10;;;;;;;1.60;100.00;101890.66;4994027;28;20572;-52
2022/02/27 07:20:19;;;;;;;0.20;0.10;;;;;;;1.64;100.00;101896.03;4994312;28;20851;-52
2022/02/27 07:22:45;;;;;;;0.20;0.10;;;;;;;1.65;100.00;101887.38;4993865;28;20454;-54
2022/02/27 07:25:12;;;;;;;0.20;0.10;;;;;;;1.67;100.00;101890.94;4993469;28;20454;-52
2022/02/27 07:27:39;;;;;;;0.20;0.10;;;;;;;1.67;100.00;101896.16;4993212;28;20512;-52
2022/02/27 07:30:06;;;;;;;0.20;0.10;;;;;;;1.71;100.00;101891.91;4993589;28;20461;-52
2022/02/27 07:32:33;;;;;;;0.20;0.10;;;;;;;1.75;100.00;101888.53;4993782;28;20489;-52
2022/02/27 07:35:00;;;;;;;0.20;0.10;;;;;;;1.85;100.00;101885.41;4993934;28;20492;-52
2022/02/27 07:37:26;;;;;;;0.20;0.10;;;;;;;2.02;100.00;101896.41;4993488;28;20476;-52
2022/02/27 07:39:53;;;;;;;0.20;0.10;;;;;;;1.99;100.00;101889.34;4993652;28;20457;-52
2022/02/27 07:42:22;;;;;;;0.20;0.10;;;;;;;2.16;100.00;101884.63;4993061;28;20459;-52
2022/02/27 07:44:48;;;;;;;0.20;0.10;;;;;;;2.18;100.00;101887.28;4993577;28;20837;-52
2022/02/27 07:47:15;;;;;;;0.20;0.10;;;;;;;2.29;100.00;101885.91;4993638;28;20493;-53
2022/02/27 07:49:42;;;;;;;0.20;0.10;;;;;;;2.39;100.00;101885.34;4993267;28;20946;-53
2022/02/27 07:52:09;;;;;;;0.83;0.83;;;;;;;2.48;100.00;101892.63;4993688;28;20449;-52
2022/02/27 07:54:36;;;;;;;0.20;0.20;;;;;;;2.54;100.00;101877.94;4993196;28;20481;-52
2022/02/27 07:57:03;;;;;;;0.20;0.20;;;;;;;2.61;100.00;101881.66;4996448;28;20463;-52
2022/02/27 07:59:30;;;;;;;0.23;0.17;;;;;;;2.63;100.00;101891.34;4995469;28;20529;-53
2022/02/27 08:01:56;;;;;;;0.20;0.10;;;;;;;2.68;100.00;101884.47;4993177;28;20512;-53
2022/02/27 08:04:24;;;;;;;0.20;0.10;;;;;;;2.79;100.00;101882.16;4993319;28;20511;-52
2022/02/27 08:06:50;;;;;;;0.20;0.10;;;;;;;2.82;100.00;101876.09;4992934;28;20454;-53
2022/02/27 08:09:17;;;;;;;0.20;0.10;;;;;;;2.96;100.00;101874.75;4993145;28;20880;-52
2022/02/27 08:11:44;;;;;;;0.20;0.10;;;;;;;3.08;100.00;101880.34;4993022;28;20496;-52
2022/02/27 08:14:10;;;;;;;0.20;0.10;;;;;;;3.11;100.00;101884.78;4993391;28;20454;-52
2022/02/27 08:16:37;;;;;;;0.20;0.10;;;;;;;3.19;100.00;101886.78;4992922;28;20969;-52
2022/02/27 08:19:04;;;;;;;0.20;0.10;;;;;;;3.20;100.00;101878.06;4992385;28;20489;-53
2022/02/27 08:21:32;;;;;;;0.20;0.20;;;;;;;3.27;100.00;101893.13;4993029;28;20453;-52
2022/02/27 08:23:59;;;;;;;0.20;0.10;;;;;;;3.34;100.00;101891.56;4992495;28;20481;-52
2022/02/27 08:26:25;;;;;;;0.30;0.30;;;;;;;3.36;100.00;101888.97;4993370;28;20454;-52
2022/02/27 08:28:52;;;;;;;0.70;0.70;;;;;;;3.35;100.00;101895.09;4993069;28;20466;-52
2022/02/27 08:31:19;;;;;;;0.20;0.10;;;;;;;3.33;100.00;101892.44;4993204;28;20507;-52
2022/02/27 08:33:45;;;;;;;0.20;0.10;;;;;;;3.45;100.00;101887.50;4993112;28;20471;-53
2022/02/27 08:36:15;;;;;;;0.20;0.10;;;;;;;3.54;100.00;101890.34;4993138;28;20488;-52
2022/02/27 08:38:43;;;;;;;0.20;0.10;;;;;;;3.58;100.00;101883.44;4980114;28;20497;-52
2022/02/27 08:41:10;;;;;;;0.20;0.10;;;;;;;3.65;100.00;101895.00;4980199;28;20854;-53
2022/02/27 08:43:38;;;;;;;0.20;0.10;;;;;;;3.62;100.00;101887.91;4992926;28;20453;-52
2022/02/27 08:46:05;;;;;;;0.20;0.10;;;;;;;3.70;100.00;101886.38;4993014;28;20450;-52
2022/02/27 08:48:32;;;;;;;0.20;0.10;;;;;;;3.82;100.00;101886.66;4992828;28;20536;-52
2022/02/27 08:50:58;;;;;;;0.20;0.10;;;;;;;4.03;100.00;101886.31;4992695;28;20516;-53
2022/02/27 08:53:25;;;;;;;0.20;0.10;;;;;;;4.04;100.00;101892.47;4992695;28;20500;-53
2022/02/27 08:55:53;;;;;;;0.20;0.10;;;;;;;4.12;100.00;101897.06;4993491;28;20454;-53
2022/02/27 08:58:19;;;;;;;0.20;0.10;;;;;;;4.29;99.70;101896.56;5004551;28;20497;-52
2022/02/27 09:00:46;;;;;;;0.23;0.20;;;;;;;4.47;99.45;101876.78;4992755;28;20453;-53
2022/02/27 09:03:15;;;;;;;0.20;0.10;;;;;;;4.64;98.31;101877.16;4992791;28;20459;-53
2022/02/27 09:05:44;;;;;;;0.20;0.10;;;;;;;4.59;97.25;101891.09;4992498;28;20454;-53
2022/02/27 09:08:11;;;;;;;0.20;0.10;;;;;;;4.66;97.51;101892.97;4993022;28;20838;-53
2022/02/27 09:10:37;;;;;;;0.20;0.10;;;;;;;4.52;96.96;101882.16;4993480;28;20505;-53
2022/02/27 09:13:04;;;;;;;0.20;0.10;;;;;;;4.63;96.80;101885.91;4992645;28;20931;-53
2022/02/27 09:15:31;;;;;;;0.20;0.10;;;;;;;4.87;96.53;101884.66;4992664;28;20484;-53
2022/02/27 09:17:57;;;;;;;0.20;0.20;;;;;;;4.97;95.43;101882.25;4992409;28;20556;-53
2022/02/27 09:20:24;;;;;;;0.20;0.10;;;;;;;5.13;94.54;101883.41;4992366;28;20978;-53
2022/02/27 09:22:51;;;;;;;0.20;0.20;;;;;;;5.15;94.03;101883.44;4992872;28;20519;-53
2022/02/27 09:25:17;;;;;;;0.20;0.10;;;;;;;5.33;93.30;101875.88;4992640;28;20512;-53
2022/02/27 09:28:04;;;;;;;0.20;0.10;;;;;;;5.31;90.52;101869.69;4992592;28;20580;-53
2022/02/27 09:30:31;;;;;;;0.20;0.10;;;;;;;5.53;91.13;101878.88;4992404;28;20826;-53
2022/02/27 09:32:57;;;;;;;0.20;0.10;;;;;;;5.56;90.92;101876.28;4992470;28;20488;-53
2022/02/27 09:35:28;;;;;;;2.87;1.07;;;;;;;5.84;90.83;101880.28;4995844;28;20457;-53
2022/02/27 09:37:57;;;;;;;0.30;0.20;;;;;;;5.74;89.56;101873.97;4996145;28;20472;-53
2022/02/27 09:40:24;;;;;;;0.20;0.10;;;;;;;5.55;88.20;101874.53;4983611;28;20449;-53
2022/02/27 09:42:54;;;;;;;0.20;0.10;;;;;;;5.67;89.14;101887.94;4996128;28;20463;-53
2022/02/27 09:45:22;;;;;;;0.20;0.10;;;;;;;5.84;88.67;101882.91;4995957;28;20457;-53
2022/02/27 09:47:50;;;;;;;0.20;0.10;;;;;;;5.80;89.04;101881.09;4995833;28;20477;-53
2022/02/27 09:50:19;;;;;;;0.20;0.10;;;;;;;5.72;87.94;101886.25;4996047;28;20450;-53
2022/02/27 09:52:45;;;;;;;0.20;0.10;;;;;;;6.01;88.21;101876.19;4995771;28;20453;-53
2022/02/27 09:55:14;;;;;;;0.20;0.13;;;;;;;6.02;88.11;101864.75;4995988;28;20488;-53
2022/02/27 09:57:46;;;;;;;0.20;0.10;;;;;;;5.93;86.98;101875.19;4998462;28;20477;-53
2022/02/27 10:00:15;;;;;;;0.20;0.20;;;;;;;6.21;87.43;101866.84;4994857;28;20493;-53
2022/02/27 10:03:15;;;;;;;0.20;0.20;;;;;;;6.05;86.04;101867.47;4995407;28;20496;-52
2022/02/27 10:05:44;;;;;;;0.20;0.10;;;;;;;6.17;87.56;101874.69;4953110;28;20519;-52
2022/02/27 10:08:13;;;;;;;0.20;0.13;;;;;;;6.07;84.90;101864.84;4995516;28;20539;-52
2022/02/27 10:10:57;;;;;;;0.40;0.40;;;;;;;6.32;86.41;101868.75;4995450;28;20454;-53
2022/02/27 10:13:52;;;;;;;0.30;0.20;;;;;;;6.34;85.02;101872.31;4995464;28;20503;-52
2022/02/27 10:16:21;;;;;;;0.53;0.53;;;;;;;6.37;84.53;101869.69;4984591;28;20489;-52
2022/02/27 10:18:53;;;;;;;0.20;0.20;;;;;;;6.65;85.28;101863.91;4995061;28;20547;-52
2022/02/27 10:21:30;;;;;;;0.20;0.10;;;;;;;6.57;85.63;101856.75;4994967;28;20535;-53
2022/02/27 10:24:17;;;;;;;1.43;1.43;;;;;;;6.60;83.38;101859.44;4994732;28;20456;-52
2022/02/27 10:26:47;;;;;;;0.20;0.20;;;;;;;6.73;83.57;101856.97;4994594;28;20983;-53
2022/02/27 10:29:17;;;;;;;0.20;0.13;;;;;;;6.81;81.75;101863.22;4994854;28;20449;-53
2022/02/27 10:31:46;;;;;;;1.03;1.03;;;;;;;6.88;82.75;101856.28;4994629;28;20457;-53
2022/02/27 10:34:23;;;;;;;0.20;0.10;;;;;;;6.71;81.98;101863.97;4994976;28;20523;-52
2022/02/27 10:37:03;;;;;;;0.20;0.20;;;;;;;6.91;81.55;101856.31;4994248;28;20492;-53
2022/02/27 10:39:44;;;;;;;0.20;0.10;;;;;;;6.98;81.19;101857.25;4994228;28;20624;-53
2022/02/27 10:42:24;;;;;;;0.20;0.10;;;;;;;7.05;82.10;101851.19;4984332;28;20543;-53
2022/02/27 10:44:58;;;;;;;0.20;0.20;;;;;;;7.22;81.29;101851.34;4994682;28;20453;-52
2022/02/27 10:50:10;;;;;;;0.30;0.20;;;;;;;7.48;76.64;101838.38;5034398;28;20490;-51
2022/02/27 10:52:44;;;;;;;0.30;0.20;;;;;;;7.56;76.10;101836.69;5047831;28;20497;-51
2022/02/27 10:55:12;;;;;;;0.20;0.20;;;;;;;7.39;76.37;101840.06;5034539;28;20457;-50
2022/02/27 10:57:47;;;;;;;0.30;0.17;;;;;;;7.85;75.63;101834.28;5036134;28;20451;-51
2022/02/27 11:00:15;;;;;;;0.30;0.20;;;;;;;7.99;74.69;101841.44;5043682;28;20521;-53
2022/02/27 11:02:43;;;;;;;0.30;0.20;;;;;;;7.88;76.26;101832.53;5044348;28;20482;-51
2022/02/27 11:05:13;;;;;;;0.30;0.20;;;;;;;8.05;74.09;101837.06;5050142;28;20549;-51
2022/02/27 11:07:42;;;;;;;0.30;0.17;;;;;;;7.99;75.06;101838.81;5036393;28;20448;-52
2022/02/27 11:10:17;;;;;;;0.30;0.10;;;;;;;8.14;74.58;101831.84;5046899;28;20447;-53
2022/02/27 11:12:44;;;;;;;0.30;0.20;;;;;;;7.61;73.65;101837.63;5049559;28;20450;-51
2022/02/27 11:15:14;;;;;;;0.30;0.20;;;;;;;7.78;75.75;101825.41;5040887;28;20440;-51
2022/02/27 11:17:42;;;;;;;0.30;0.20;;;;;;;7.98;74.92;101817.63;5047050;28;20951;-52
2022/02/27 11:20:10;;;;;;;0.30;0.20;;;;;;;7.88;73.94;101821.06;5047975;28;20516;-51
2022/02/27 11:22:38;;;;;;;0.30;0.20;;;;;;;7.99;73.41;101816.72;5041671;28;20509;-52
2022/02/27 11:25:10;;;;;;;0.30;0.20;;;;;;;7.95;72.41;101805.25;5037064;28;20514;-51
2022/02/27 11:28:04;;;;;;;0.27;0.20;;;;;;;8.05;73.69;101805.28;5052547;28;20447;-50
2022/02/27 11:30:34;;;;;;;0.30;0.20;;;;;;;8.10;74.04;101809.75;5036457;28;20446;-51
2022/02/27 11:33:06;;;;;;;0.30;0.20;;;;;;;8.32;73.06;101798.38;5040854;28;20443;-51
2022/02/27 11:35:51;;;;;;;0.30;0.20;;;;;;;8.23;72.61;101806.28;5035788;28;20502;-51